Time;durP1;ratioP1;P1;durP2;ratioP2;P2;SDS_P1;SDS_P2;PMS_P1;PMS_P2;Temp;Humidity;BMP_temperature;BMP_pressure;BME280_temperature;BME280_humidity;BME280_pressure;Samples;Min_cycle;Max_cycle;Signal;HPM_P1;HPM_P2
2022/08/06 00:00:06;;;;;;;4.97;2.28;;;;;;;;;;2103127;28;20063;-68
2022/08/06 00:01:13;;;;;;;4.68;2.13;;;;;;;21.24;nan;100901.19;2096856;28;20041;-68
2022/08/06 00:02:23;;;;;;;7.38;2.05;;;;;;;21.24;nan;100889.47;2086939;28;20369;-69
2022/08/06 00:03:25;;;;;;;4.07;2.33;;;;;;;21.27;nan;100888.78;2087901;28;20132;-68
2022/08/06 00:04:27;;;;;;;8.35;2.70;;;;;;;21.15;nan;100886.84;2088216;28;20052;-68
2022/08/06 00:05:29;;;;;;;5.63;2.15;;;;;;;21.12;nan;100886.72;2087548;28;20052;-68
2022/08/06 00:06:33;;;;;;;6.75;2.40;;;;;;;21.12;nan;100886.72;2071985;28;20034;-69
2022/08/06 00:07:35;;;;;;;5.82;2.00;;;;;;;21.12;nan;100898.47;2079573;28;20306;-68
2022/08/06 00:08:38;;;;;;;5.00;1.85;;;;;;;21.11;nan;100898.81;2093301;28;20047;-68
2022/08/06 00:09:40;;;;;;;3.55;2.03;;;;;;;21.12;nan;100903.94;2088043;28;20053;-69
2022/08/06 00:10:43;;;;;;;3.80;2.20;;;;;;;21.10;nan;100903.50;2088459;28;20176;-67
2022/08/06 00:11:48;;;;;;;6.18;2.30;;;;;;;21.12;nan;100906.66;2096019;28;20039;-66
2022/08/06 00:12:51;;;;;;;4.15;2.17;;;;;;;21.10;nan;100905.44;2095267;28;20033;-67
2022/08/06 00:13:53;;;;;;;6.13;2.10;;;;;;;21.04;nan;100902.91;2089738;28;20413;-67
2022/08/06 00:14:55;;;;;;;4.20;2.28;;;;;;;21.06;nan;100905.31;2098136;28;20039;-69
2022/08/06 00:16:00;;;;;;;5.95;1.90;;;;;;;21.07;nan;100906.91;2098274;28;20399;-69
2022/08/06 00:17:03;;;;;;;3.63;1.98;;;;;;;21.03;nan;100889.59;2097876;28;20491;-69
2022/08/06 00:18:04;;;;;;;2.75;1.83;;;;;;;20.96;nan;100890.13;2089732;28;20079;-68
2022/08/06 00:19:07;;;;;;;3.03;2.00;;;;;;;20.93;nan;100896.31;2081526;28;20056;-69
2022/08/06 00:20:16;;;;;;;4.25;2.05;;;;;;;21.02;nan;100905.19;2081401;28;20045;-69
2022/08/06 00:21:19;;;;;;;3.33;2.42;;;;;;;20.99;nan;100911.31;2074611;28;20045;-69
2022/08/06 00:22:27;;;;;;;5.25;2.08;;;;;;;20.97;nan;100902.69;2061223;28;20034;-69
2022/08/06 00:23:29;;;;;;;5.30;1.90;;;;;;;20.95;nan;100909.63;2066784;28;20038;-69
2022/08/06 00:24:31;;;;;;;5.57;1.83;;;;;;;21.00;nan;100912.94;2065216;28;20034;-68
2022/08/06 00:25:33;;;;;;;8.00;2.00;;;;;;;21.03;nan;100916.94;2081499;28;20413;-69
2022/08/06 00:26:37;;;;;;;4.78;2.10;;;;;;;21.08;nan;100919.44;2097964;28;20044;-68
2022/08/06 00:27:44;;;;;;;6.30;2.20;;;;;;;21.08;nan;100924.09;2098360;28;20029;-69
2022/08/06 00:28:47;;;;;;;3.53;1.55;;;;;;;21.04;nan;100924.78;2102134;28;20040;-68
2022/08/06 00:29:58;;;;;;;4.28;2.03;;;;;;;20.95;nan;100926.81;2098100;28;20503;-69
2022/08/06 00:31:02;;;;;;;4.28;1.73;;;;;;;20.93;nan;100934.59;2092484;28;20166;-69
2022/08/06 00:32:07;;;;;;;3.35;1.40;;;;;;;20.93;nan;100940.06;2092245;28;20472;-68
2022/08/06 00:33:11;;;;;;;3.67;1.50;;;;;;;20.82;nan;100927.94;2090219;28;20041;-68
2022/08/06 00:34:14;;;;;;;3.70;1.98;;;;;;;20.77;nan;100926.22;2089776;28;20040;-69
2022/08/06 00:35:17;;;;;;;4.75;1.50;;;;;;;20.74;nan;100920.63;2089813;28;20033;-69
2022/08/06 00:36:19;;;;;;;4.30;1.30;;;;;;;20.75;nan;100928.50;2083462;28;20038;-68
2022/08/06 00:37:22;;;;;;;4.70;1.30;;;;;;;20.72;nan;100923.72;2081686;28;20037;-69
2022/08/06 00:38:24;;;;;;;4.38;1.10;;;;;;;20.64;nan;100915.59;2089700;28;20041;-69
2022/08/06 00:39:27;;;;;;;3.97;1.25;;;;;;;;;;2089510;28;20079;-68
2022/08/06 00:40:29;;;;;;;2.75;1.05;;;;;;;;;;2089560;28;20512;-69
2022/08/06 00:41:32;;;;;;;4.93;1.30;;;;;;;;;;2089261;28;20051;-68
2022/08/06 00:42:34;;;;;;;4.85;1.20;;;;;;;;;;2089539;28;20035;-68
2022/08/06 00:43:36;;;;;;;4.78;1.10;;;;;;;;;;2089842;28;20048;-68
2022/08/06 00:44:37;;;;;;;1.13;0.90;;;;;;;;;;2081435;28;20049;-68
2022/08/06 00:45:39;;;;;;;5.63;0.93;;;;;;;;;;2073209;28;20469;-68
2022/08/06 00:46:41;;;;;;;2.70;1.10;;;;;;;;;;2081300;28;20041;-68
2022/08/06 00:47:43;;;;;;;2.78;1.00;;;;;;;20.27;nan;100940.00;2089683;28;20044;-68
2022/08/06 00:48:47;;;;;;;4.70;1.05;;;;;;;20.26;nan;100941.94;2089574;28;20044;-68
2022/08/06 00:49:48;;;;;;;3.00;0.80;;;;;;;;;;2080056;28;20048;-69
2022/08/06 00:50:52;;;;;;;7.13;1.17;;;;;;;20.22;nan;100937.50;2093755;28;20052;-69
2022/08/06 00:51:56;;;;;;;2.63;1.25;;;;;;;20.10;nan;100930.84;2105453;28;20153;-68
2022/08/06 00:52:59;;;;;;;6.75;1.00;;;;;;;20.10;nan;100947.22;2105641;28;20055;-69
2022/08/06 00:54:01;;;;;;;4.03;1.05;;;;;;;20.14;nan;100948.16;2106430;28;20039;-69
2022/08/06 00:55:08;;;;;;;4.78;1.00;;;;;;;20.16;nan;100955.22;2106223;28;20043;-69
2022/08/06 00:56:10;;;;;;;5.88;1.08;;;;;;;20.24;nan;100962.53;2098335;28;20396;-68
2022/08/06 00:57:15;;;;;;;1.80;0.80;;;;;;;20.22;nan;100971.06;2100932;28;20518;-68
2022/08/06 00:58:21;;;;;;;1.50;0.85;;;;;;;20.24;nan;100967.97;2097320;28;20476;-68
2022/08/06 00:59:32;;;;;;;2.47;0.90;;;;;;;20.28;nan;100966.22;2080596;28;20037;-68
2022/08/06 01:00:37;;;;;;;2.90;0.77;;;;;;;20.31;nan;100957.34;2083315;28;20243;-69
2022/08/06 01:01:42;;;;;;;2.70;0.85;;;;;;;20.25;nan;100953.22;2081893;28;20040;-68
2022/08/06 01:02:47;;;;;;;3.97;1.00;;;;;;;20.19;nan;100955.34;2081410;28;20041;-68
2022/08/06 01:03:51;;;;;;;1.52;0.77;;;;;;;20.11;nan;100959.75;2081267;28;20486;-68
2022/08/06 01:04:53;;;;;;;4.80;0.80;;;;;;;20.18;nan;100969.34;2085644;28;20049;-68
2022/08/06 01:05:55;;;;;;;1.98;0.80;;;;;;;20.26;nan;100957.53;2080896;28;20029;-68
2022/08/06 01:06:57;;;;;;;5.47;0.90;;;;;;;20.28;nan;100963.47;2081529;28;20045;-68
2022/08/06 01:08:01;;;;;;;3.00;0.80;;;;;;;20.24;nan;100957.06;2089158;28;20025;-68
2022/08/06 01:09:09;;;;;;;2.92;0.90;;;;;;;20.23;nan;100950.81;2073069;28;20038;-68
2022/08/06 01:10:14;;;;;;;1.95;0.90;;;;;;;20.09;nan;100955.75;2082065;28;20058;-68
2022/08/06 01:11:18;;;;;;;3.03;0.90;;;;;;;20.02;nan;100955.47;2088373;28;20045;-69
2022/08/06 01:12:21;;;;;;;3.40;1.05;;;;;;;20.05;nan;100955.63;2072545;28;20061;-68
2022/08/06 01:13:25;;;;;;;1.73;0.68;;;;;;;20.04;nan;100955.94;2081284;28;20030;-69
2022/08/06 01:14:30;;;;;;;1.90;0.70;;;;;;;19.99;nan;100956.97;2089292;28;20060;-69
2022/08/06 01:15:34;;;;;;;5.00;0.90;;;;;;;19.97;nan;100964.66;2072995;28;20038;-69
2022/08/06 01:16:46;;;;;;;3.13;0.90;;;;;;;19.95;nan;100961.47;2078736;28;20504;-68
2022/08/06 01:17:54;;;;;;;3.70;0.63;;;;;;;19.93;nan;100962.94;2089375;28;20056;-69
2022/08/06 01:19:17;;;;;;;4.00;0.70;;;;;;;19.98;nan;100971.72;2087665;28;20033;-69
2022/08/06 01:20:37;;;;;;;2.38;0.80;;;;;;;20.03;nan;100962.53;2094435;28;20040;-69
2022/08/06 01:22:16;;;;;;;2.15;0.70;;;;;;;20.10;nan;100963.59;2081130;28;20052;-68
2022/08/06 01:23:49;;;;;;;2.55;0.70;;;;;;;20.18;nan;100953.75;2085615;28;20116;-69
2022/08/06 01:24:57;;;;;;;3.22;0.88;;;;;;;20.17;nan;100952.16;2089747;28;20402;-66
2022/08/06 01:26:06;;;;;;;1.65;0.75;;;;;;;20.26;nan;100941.94;2073182;28;20155;-66
2022/08/06 01:27:46;;;;;;;3.95;0.77;;;;;;;20.21;nan;100935.88;2067859;28;20042;-69
2022/08/06 01:28:58;;;;;;;5.97;0.73;;;;;;;20.21;nan;100936.72;2094354;28;20052;-69
2022/08/06 01:30:11;;;;;;;2.20;0.80;;;;;;;20.08;nan;100933.13;2091000;28;20033;-67
2022/08/06 01:31:19;;;;;;;4.43;0.70;;;;;;;20.01;nan;100949.22;2099299;28;20059;-67
2022/08/06 01:32:29;;;;;;;4.95;0.80;;;;;;;20.02;nan;100950.00;2074447;28;20038;-69
2022/08/06 01:33:36;;;;;;;1.15;0.60;;;;;;;20.00;nan;100952.28;2075396;28;20041;-69
2022/08/06 01:34:42;;;;;;;0.75;0.60;;;;;;;19.95;nan;100955.22;2082705;28;20040;-70
2022/08/06 01:35:50;;;;;;;2.42;0.85;;;;;;;19.99;nan;100953.44;2081629;28;20040;-69
2022/08/06 01:37:02;;;;;;;3.40;0.65;;;;;;;19.98;nan;100955.34;2074777;28;20038;-69
2022/08/06 01:38:18;;;;;;;1.02;0.50;;;;;;;20.03;nan;100968.78;2085449;28;20064;-70
2022/08/06 01:39:23;;;;;;;1.45;0.60;;;;;;;20.05;nan;100961.09;2082981;28;20044;-69
2022/08/06 01:40:32;;;;;;;2.70;0.70;;;;;;;20.07;nan;100963.47;2089405;28;20409;-70
2022/08/06 01:41:43;;;;;;;5.20;0.88;;;;;;;20.11;nan;100965.22;2088673;28;20060;-69
2022/08/06 01:42:49;;;;;;;3.63;0.75;;;;;;;20.12;nan;100966.81;2089471;28;20044;-69
2022/08/06 01:43:55;;;;;;;4.90;0.75;;;;;;;20.16;nan;100964.22;2089957;28;20025;-69
2022/08/06 01:45:03;;;;;;;3.70;0.77;;;;;;;20.16;nan;100966.13;2081142;28;20579;-69
2022/08/06 01:46:09;;;;;;;1.30;0.80;;;;;;;20.13;nan;100968.41;2081854;28;20425;-70
2022/08/06 01:47:15;;;;;;;3.92;0.75;;;;;;;20.11;nan;100965.22;2096756;28;20444;-69
2022/08/06 01:48:21;;;;;;;4.13;0.80;;;;;;;20.04;nan;100964.94;2098136;28;20040;-70
2022/08/06 01:49:26;;;;;;;2.67;0.90;;;;;;;20.02;nan;100967.22;2098150;28;20033;-69
2022/08/06 01:50:37;;;;;;;1.83;0.65;;;;;;;20.03;nan;100977.00;2080952;28;20409;-69
2022/08/06 01:51:40;;;;;;;6.50;0.98;;;;;;;20.06;nan;100984.50;2085063;28;20037;-69
2022/08/06 01:52:43;;;;;;;5.05;0.95;;;;;;;20.05;nan;100982.09;2097302;28;20043;-69
2022/08/06 01:53:46;;;;;;;4.60;0.80;;;;;;;20.00;nan;100969.47;2071811;28;20037;-69
2022/08/06 01:54:50;;;;;;;2.47;0.60;;;;;;;20.00;nan;100980.38;2073228;28;20509;-69
2022/08/06 01:55:58;;;;;;;2.03;0.70;;;;;;;20.01;nan;100981.19;2081409;28;20029;-69
2022/08/06 01:57:03;;;;;;;3.80;0.80;;;;;;;20.00;nan;100985.84;2073809;28;20042;-69
2022/08/06 01:58:06;;;;;;;2.03;0.60;;;;;;;20.02;nan;101005.44;2081333;28;20030;-69
2022/08/06 01:59:10;;;;;;;4.78;0.70;;;;;;;20.08;nan;101000.53;2080918;28;20037;-70
2022/08/06 02:00:18;;;;;;;6.22;1.20;;;;;;;20.07;nan;101004.41;2066334;28;20046;-69
2022/08/06 02:01:22;;;;;;;2.08;0.70;;;;;;;20.05;nan;100988.38;2073829;28;20050;-70
2022/08/06 02:02:26;;;;;;;1.48;0.70;;;;;;;20.01;nan;100998.34;2065286;28;20038;-69
2022/08/06 02:03:33;;;;;;;3.50;0.68;;;;;;;20.06;nan;101003.63;2082542;28;20060;-68
2022/08/06 02:04:40;;;;;;;1.77;0.73;;;;;;;20.04;nan;100997.69;2097292;28;20040;-67
2022/08/06 02:05:44;;;;;;;2.58;0.77;;;;;;;20.05;nan;101010.22;2097488;28;20036;-69
2022/08/06 02:06:47;;;;;;;4.85;0.80;;;;;;;20.09;nan;101010.34;2097271;28;20039;-68
2022/08/06 02:07:52;;;;;;;2.67;1.15;;;;;;;20.05;nan;101004.75;2089349;28;20033;-69
2022/08/06 02:08:57;;;;;;;4.53;0.88;;;;;;;20.05;nan;100996.56;2096333;28;20055;-69
2022/08/06 02:10:01;;;;;;;2.90;0.90;;;;;;;20.08;nan;101003.28;2097995;28;20039;-69
2022/08/06 02:11:11;;;;;;;3.13;0.80;;;;;;;19.93;nan;101001.94;2097951;28;20036;-69
2022/08/06 02:12:17;;;;;;;2.83;0.70;;;;;;;19.95;nan;101009.78;2091538;28;20037;-69
2022/08/06 02:13:22;;;;;;;1.23;0.60;;;;;;;19.97;nan;101005.59;2088219;28;20111;-69
2022/08/06 02:14:26;;;;;;;2.65;0.60;;;;;;;19.97;nan;101002.88;2081806;28;20045;-69
2022/08/06 02:15:31;;;;;;;2.90;0.80;;;;;;;19.90;nan;100991.69;2096481;28;20059;-69
2022/08/06 02:16:41;;;;;;;3.13;1.13;;;;;;;19.79;nan;100991.25;2093493;28;20028;-69
2022/08/06 02:17:49;;;;;;;3.60;1.30;;;;;;;19.81;nan;100996.41;2091037;28;20064;-69
2022/08/06 02:18:53;;;;;;;0.95;0.68;;;;;;;19.70;nan;100998.69;2098287;28;20036;-69
2022/08/06 02:19:55;;;;;;;2.50;0.68;;;;;;;19.70;nan;101003.34;2097856;28;20381;-69
2022/08/06 02:21:00;;;;;;;2.75;0.70;;;;;;;19.66;nan;101004.00;2097270;28;20032;-69
2022/08/06 02:22:05;;;;;;;1.90;0.70;;;;;;;19.68;nan;100996.31;2081697;28;20044;-69
2022/08/06 02:23:10;;;;;;;1.83;0.70;;;;;;;19.71;nan;101010.44;2089503;28;20036;-69
2022/08/06 02:24:17;;;;;;;1.88;0.60;;;;;;;19.74;nan;101012.50;2097314;28;20048;-69
2022/08/06 02:25:21;;;;;;;2.88;0.55;;;;;;;19.70;nan;101014.25;2097165;28;20052;-69
2022/08/06 02:26:30;;;;;;;1.30;0.70;;;;;;;19.73;nan;101024.53;2097287;28;20036;-69
2022/08/06 02:27:33;;;;;;;1.27;0.60;;;;;;;19.69;nan;101024.38;2089141;28;20060;-68
2022/08/06 02:28:38;;;;;;;3.35;0.75;;;;;;;19.74;nan;101031.59;2091202;28;20047;-68
2022/08/06 02:29:41;;;;;;;3.28;1.02;;;;;;;;;;2090172;28;20060;-69
2022/08/06 02:30:45;;;;;;;0.88;0.65;;;;;;;19.83;nan;101016.78;2097396;28;20047;-67
2022/08/06 02:31:51;;;;;;;3.03;1.10;;;;;;;19.87;nan;101020.44;2084012;28;20516;-66
2022/08/06 02:32:53;;;;;;;2.45;0.60;;;;;;;19.86;nan;101023.47;2081290;28;20037;-67
2022/08/06 02:33:56;;;;;;;1.67;0.60;;;;;;;19.86;nan;101023.47;2088737;28;20037;-66
2022/08/06 02:34:59;;;;;;;1.90;0.90;;;;;;;19.85;nan;101032.81;2080511;28;20041;-66
2022/08/06 02:36:06;;;;;;;0.63;0.50;;;;;;;19.90;nan;101035.34;2088709;28;20111;-69
2022/08/06 02:37:14;;;;;;;5.25;0.77;;;;;;;;;;2082331;28;20029;-69
2022/08/06 02:38:34;;;;;;;6.07;1.23;;;;;;;19.90;nan;101035.34;2080481;28;20046;-68
2022/08/06 02:39:51;;;;;;;4.68;0.63;;;;;;;;;;2085967;28;20053;-69
2022/08/06 02:40:59;;;;;;;3.13;0.68;;;;;;;19.87;nan;101042.28;2097195;28;20059;-69
2022/08/06 02:42:08;;;;;;;2.55;0.70;;;;;;;19.87;nan;101025.88;2088796;28;20039;-69
2022/08/06 02:43:21;;;;;;;3.45;0.75;;;;;;;19.86;nan;101035.22;2080212;28;20041;-69
2022/08/06 02:44:42;;;;;;;3.63;0.63;;;;;;;19.83;nan;101030.41;2076706;28;20045;-69
2022/08/06 02:45:54;;;;;;;2.83;0.80;;;;;;;19.83;nan;101027.69;2090882;28;20063;-68
2022/08/06 02:47:05;;;;;;;4.53;1.05;;;;;;;19.87;nan;101030.56;2079383;28;20033;-69
2022/08/06 02:48:27;;;;;;;3.35;0.70;;;;;;;19.85;nan;101032.81;2082202;28;20056;-69
2022/08/06 02:49:33;;;;;;;1.90;0.60;;;;;;;19.87;nan;101028.63;2096941;28;20044;-68
2022/08/06 02:50:38;;;;;;;3.05;1.00;;;;;;;19.93;nan;101029.25;2082755;28;20064;-68
2022/08/06 02:51:45;;;;;;;2.15;0.93;;;;;;;19.95;nan;101026.97;2072379;28;20049;-68
2022/08/06 02:52:53;;;;;;;1.27;0.60;;;;;;;19.93;nan;101023.78;2064613;28;20050;-69
2022/08/06 02:54:12;;;;;;;1.95;0.80;;;;;;;19.92;nan;101011.25;2073745;28;20036;-69
2022/08/06 02:55:35;;;;;;;2.72;0.70;;;;;;;19.94;nan;101002.75;2080009;28;20549;-69
2022/08/06 02:56:43;;;;;;;1.52;0.80;;;;;;;19.94;nan;101014.44;2072542;28;20382;-69
2022/08/06 02:57:51;;;;;;;1.60;0.80;;;;;;;19.94;nan;101024.56;2084869;28;20034;-69
2022/08/06 02:58:55;;;;;;;4.85;0.90;;;;;;;19.91;nan;101031.50;2080636;28;20041;-66
2022/08/06 03:00:03;;;;;;;4.32;1.08;;;;;;;19.87;nan;101034.09;2081188;28;20040;-66
2022/08/06 03:01:09;;;;;;;4.22;0.90;;;;;;;19.89;nan;101039.19;2095794;28;20049;-66
2022/08/06 03:02:15;;;;;;;4.38;0.90;;;;;;;19.87;nan;101036.00;2080579;28;20509;-69
2022/08/06 03:03:19;;;;;;;3.90;0.77;;;;;;;19.87;nan;101036.81;2072528;28;20042;-69
2022/08/06 03:04:25;;;;;;;2.00;0.80;;;;;;;19.83;nan;101045.97;2088612;28;20037;-69
2022/08/06 03:05:30;;;;;;;1.50;0.88;;;;;;;19.82;nan;101028.00;2096560;28;20040;-69
2022/08/06 03:06:35;;;;;;;1.65;0.60;;;;;;;19.81;nan;101048.25;2088564;28;20582;-69
2022/08/06 03:07:39;;;;;;;2.47;0.85;;;;;;;19.77;nan;101028.22;2072239;28;20037;-67
2022/08/06 03:08:44;;;;;;;5.63;0.88;;;;;;;19.75;nan;101036.72;2071884;28;20046;-70
2022/08/06 03:09:50;;;;;;;1.42;0.70;;;;;;;19.73;nan;101041.69;2072012;28;20545;-69
2022/08/06 03:10:54;;;;;;;2.95;0.70;;;;;;;19.71;nan;101032.25;2080822;28;20037;-69
2022/08/06 03:11:57;;;;;;;5.47;1.10;;;;;;;19.70;nan;101025.19;2079416;28;20042;-69
2022/08/06 03:13:06;;;;;;;3.40;0.95;;;;;;;19.66;nan;101028.56;2077678;28;20100;-69
2022/08/06 03:14:12;;;;;;;1.67;0.80;;;;;;;19.68;nan;101029.03;2087376;28;20041;-69
2022/08/06 03:15:19;;;;;;;3.33;0.77;;;;;;;19.59;nan;101025.53;2088092;28;20037;-69
2022/08/06 03:16:24;;;;;;;2.53;1.55;;;;;;;19.61;nan;101034.19;2087666;28;20040;-69
2022/08/06 03:17:28;;;;;;;4.82;0.80;;;;;;;19.58;nan;101034.84;2096358;28;20154;-69
2022/08/06 03:18:31;;;;;;;2.90;0.90;;;;;;;19.58;nan;101040.28;2088138;28;20041;-69
2022/08/06 03:19:35;;;;;;;5.57;0.98;;;;;;;19.62;nan;101045.91;2076446;28;20032;-69
2022/08/06 03:20:41;;;;;;;3.08;0.82;;;;;;;19.57;nan;101049.59;2087916;28;20048;-67
2022/08/06 03:21:46;;;;;;;3.50;0.90;;;;;;;19.57;nan;101048.78;2087992;28;20400;-68
2022/08/06 03:22:53;;;;;;;2.88;0.70;;;;;;;19.58;nan;101034.84;2071909;28;20057;-68
2022/08/06 03:23:57;;;;;;;1.70;0.70;;;;;;;19.61;nan;101034.19;2064865;28;20042;-68
2022/08/06 03:25:02;;;;;;;2.45;0.77;;;;;;;19.66;nan;101044.94;2080152;28;20048;-68
2022/08/06 03:26:05;;;;;;;1.35;0.73;;;;;;;19.65;nan;101046.06;2079395;28;20420;-68
2022/08/06 03:27:14;;;;;;;1.75;0.70;;;;;;;19.65;nan;101046.06;2073424;28;20046;-69
2022/08/06 03:28:17;;;;;;;1.60;0.68;;;;;;;19.62;nan;101052.16;2080003;28;20700;-69
2022/08/06 03:29:22;;;;;;;1.27;0.80;;;;;;;19.57;nan;101057.78;2071641;28;20034;-68
2022/08/06 03:30:26;;;;;;;1.92;0.80;;;;;;;19.61;nan;101055.22;2056856;28;20042;-69
2022/08/06 03:31:31;;;;;;;2.72;0.80;;;;;;;19.63;nan;101059.19;2080544;28;20169;-68
2022/08/06 03:32:33;;;;;;;2.63;0.60;;;;;;;19.62;nan;101052.16;2080202;28;20527;-68
2022/08/06 03:33:37;;;;;;;3.65;0.93;;;;;;;19.63;nan;101053.72;2072127;28;20548;-67
2022/08/06 03:34:39;;;;;;;1.30;0.60;;;;;;;19.66;nan;101064.03;2080206;28;20420;-68
2022/08/06 03:35:42;;;;;;;2.03;1.00;;;;;;;19.68;nan;101061.78;2096482;28;20467;-69
2022/08/06 03:36:45;;;;;;;1.60;0.70;;;;;;;19.68;nan;101069.97;2096974;28;20044;-68
2022/08/06 03:37:51;;;;;;;1.80;0.73;;;;;;;19.63;nan;101067.38;2087877;28;20048;-69
2022/08/06 03:39:00;;;;;;;2.15;0.73;;;;;;;19.61;nan;101066.91;2064716;28;20410;-68
2022/08/06 03:40:04;;;;;;;2.28;0.70;;;;;;;19.59;nan;101055.53;2082131;28;20533;-69
2022/08/06 03:41:07;;;;;;;1.02;0.80;;;;;;;19.53;nan;101056.84;2071591;28;20513;-69
2022/08/06 03:42:11;;;;;;;2.33;0.60;;;;;;;19.57;nan;101059.69;2072049;28;20053;-69
2022/08/06 03:43:13;;;;;;;0.93;0.68;;;;;;;19.50;nan;101059.41;2079895;28;20041;-69
2022/08/06 03:44:15;;;;;;;2.30;0.70;;;;;;;19.48;nan;101069.84;2080038;28;20429;-69
2022/08/06 03:45:18;;;;;;;1.02;0.55;;;;;;;19.45;nan;101071.28;2088350;28;20041;-69
2022/08/06 03:46:31;;;;;;;2.03;0.80;;;;;;;19.47;nan;101071.78;2086343;28;20029;-68
2022/08/06 03:47:40;;;;;;;0.88;0.80;;;;;;;19.48;nan;101065.19;2082552;28;20041;-68
2022/08/06 03:48:45;;;;;;;2.00;0.85;;;;;;;19.47;nan;101074.50;2074799;28;20096;-69
2022/08/06 03:50:14;;;;;;;3.50;0.80;;;;;;;19.47;nan;101073.69;2070566;28;20022;-68
2022/08/06 03:51:20;;;;;;;4.72;0.80;;;;;;;19.42;nan;101071.97;2088658;28;20067;-68
2022/08/06 03:52:26;;;;;;;1.05;0.60;;;;;;;19.41;nan;101081.25;2090273;28;20091;-69
2022/08/06 03:53:33;;;;;;;1.92;0.65;;;;;;;19.41;nan;101078.53;2082451;28;20049;-68
2022/08/06 03:54:44;;;;;;;1.65;0.70;;;;;;;19.39;nan;101076.13;2066932;28;20069;-69
2022/08/06 03:55:48;;;;;;;2.67;0.88;;;;;;;19.37;nan;101064.75;2076586;28;20393;-68
2022/08/06 03:56:56;;;;;;;0.93;0.68;;;;;;;19.37;nan;101077.59;2074094;28;20045;-68
2022/08/06 03:58:01;;;;;;;0.95;0.50;;;;;;;19.39;nan;101081.59;2082560;28;20040;-69
2022/08/06 03:59:05;;;;;;;0.80;0.70;;;;;;;19.43;nan;101084.47;2073867;28;20046;-68
2022/08/06 04:00:12;;;;;;;1.08;0.82;;;;;;;19.45;nan;101076.75;2070732;28;20050;-69
2022/08/06 04:01:22;;;;;;;2.10;0.80;;;;;;;19.44;nan;101075.16;2088276;28;20048;-69
2022/08/06 04:02:28;;;;;;;2.55;0.63;;;;;;;19.45;nan;101079.47;2081475;28;20501;-68
2022/08/06 04:03:34;;;;;;;5.07;0.85;;;;;;;19.48;nan;101088.94;2075626;28;20037;-68
2022/08/06 04:04:39;;;;;;;2.70;0.95;;;;;;;19.51;nan;101091.00;2082372;28;20037;-68
2022/08/06 04:05:42;;;;;;;3.80;0.90;;;;;;;19.51;nan;101091.00;2090578;28;20044;-69
2022/08/06 04:06:45;;;;;;;3.70;0.90;;;;;;;19.51;nan;101083.63;2098820;28;20037;-68
2022/08/06 04:07:57;;;;;;;3.13;0.75;;;;;;;19.63;nan;101094.66;2098032;28;20541;-68
2022/08/06 04:09:00;;;;;;;1.52;0.70;;;;;;;19.62;nan;101095.00;2088610;28;20045;-69
2022/08/06 04:10:03;;;;;;;1.88;0.95;;;;;;;19.60;nan;101098.03;2089887;28;20048;-69
2022/08/06 04:11:08;;;;;;;0.93;0.80;;;;;;;19.58;nan;101105.75;2090623;28;20496;-69
2022/08/06 04:12:10;;;;;;;2.78;0.68;;;;;;;19.56;nan;101108.00;2089135;28;20036;-69
2022/08/06 04:13:14;;;;;;;2.53;0.70;;;;;;;19.56;nan;101110.72;2083061;28;20505;-69
2022/08/06 04:14:20;;;;;;;3.22;0.80;;;;;;;19.55;nan;101117.31;2081794;28;20092;-69
2022/08/06 04:15:23;;;;;;;2.00;0.63;;;;;;;19.56;nan;101121.63;2082319;28;20044;-69
2022/08/06 04:16:29;;;;;;;1.23;0.70;;;;;;;19.55;nan;101117.31;2073568;28;20033;-69
2022/08/06 04:17:35;;;;;;;;;;;;;;;19.56;nan;101113.47;2082827;28;20052;-69
2022/08/06 04:18:39;;;;;;;2.85;0.90;;;;;;;19.53;nan;101110.59;2089802;28;19913;-67
2022/08/06 04:19:50;;;;;;;2.75;0.80;;;;;;;19.53;nan;101113.31;2095672;28;20037;-68
2022/08/06 04:20:54;;;;;;;1.58;0.70;;;;;;;19.54;nan;101110.25;2090119;28;20036;-69
2022/08/06 04:21:58;;;;;;;1.30;0.55;;;;;;;19.54;nan;101104.00;2082531;28;20040;-69
2022/08/06 04:23:01;;;;;;;0.85;0.50;;;;;;;19.66;nan;101109.59;2090628;28;20569;-69
2022/08/06 04:24:05;;;;;;;3.00;0.60;;;;;;;19.75;nan;101104.91;2090104;28;20039;-69
2022/08/06 04:25:10;;;;;;;3.30;0.70;;;;;;;19.85;nan;101114.66;2098094;28;20036;-69
2022/08/06 04:26:17;;;;;;;1.45;0.60;;;;;;;19.94;nan;101118.16;2089874;28;20041;-69
2022/08/06 04:27:20;;;;;;;2.88;0.80;;;;;;;20.03;nan;101110.72;2090485;28;20044;-69
2022/08/06 04:28:26;;;;;;;2.30;0.57;;;;;;;20.09;nan;101109.41;2098120;28;20059;-69
2022/08/06 04:29:29;;;;;;;2.95;0.77;;;;;;;20.04;nan;101115.06;2090427;28;20037;-68
2022/08/06 04:30:36;;;;;;;1.13;0.50;;;;;;;19.96;nan;101117.84;2082020;28;20049;-69
2022/08/06 04:31:40;;;;;;;0.90;0.50;;;;;;;20.01;nan;101129.38;2077829;28;20034;-68
2022/08/06 04:32:46;;;;;;;6.38;0.95;;;;;;;20.11;nan;101131.75;2090260;28;20060;-69
2022/08/06 04:33:55;;;;;;;2.80;0.63;;;;;;;20.25;nan;101133.44;2097362;28;20041;-69
2022/08/06 04:34:58;;;;;;;1.70;0.70;;;;;;;20.34;nan;101126.78;2079335;28;20042;-69
2022/08/06 04:36:05;;;;;;;1.77;0.70;;;;;;;20.47;nan;101140.53;2082002;28;20033;-69
2022/08/06 04:37:07;;;;;;;1.88;0.70;;;;;;;20.54;nan;101138.91;2090673;28;20043;-69
2022/08/06 04:38:09;;;;;;;2.47;0.70;;;;;;;20.58;nan;101139.81;2098312;28;20032;-69
2022/08/06 04:39:15;;;;;;;1.92;0.70;;;;;;;20.64;nan;101145.09;2089745;28;20029;-69
2022/08/06 04:40:19;;;;;;;2.20;0.70;;;;;;;20.71;nan;101139.91;2089147;28;20060;-69
2022/08/06 04:41:22;;;;;;;1.92;0.60;;;;;;;20.73;nan;101140.38;2073802;28;20045;-69
2022/08/06 04:42:27;;;;;;;1.30;0.77;;;;;;;20.80;nan;101146.91;2077198;28;20037;-69
2022/08/06 04:43:30;;;;;;;2.17;0.63;;;;;;;20.86;nan;101150.25;2081895;28;20050;-69
2022/08/06 04:44:31;;;;;;;2.58;0.50;;;;;;;20.92;nan;101145.38;2081991;28;20369;-69
2022/08/06 04:45:34;;;;;;;2.22;0.60;;;;;;;20.90;nan;101147.63;2090492;28;20036;-68
2022/08/06 04:46:40;;;;;;;0.93;0.57;;;;;;;20.92;nan;101150.84;2090576;28;20040;-69
2022/08/06 04:47:45;;;;;;;2.60;0.60;;;;;;;20.88;nan;101145.25;2098118;28;20423;-69
2022/08/06 04:48:48;;;;;;;1.38;0.52;;;;;;;20.77;nan;101152.22;2098892;28;20036;-69
2022/08/06 04:49:54;;;;;;;1.92;0.80;;;;;;;20.74;nan;101150.16;2097666;28;20048;-69
2022/08/06 04:50:56;;;;;;;2.05;0.50;;;;;;;20.77;nan;101144.84;2098250;28;20028;-69
2022/08/06 04:51:57;;;;;;;1.27;0.52;;;;;;;20.87;nan;101148.28;2089706;28;20037;-69
2022/08/06 04:53:13;;;;;;;3.60;0.77;;;;;;;20.95;nan;101141.97;2081306;28;20033;-66
2022/08/06 04:54:16;;;;;;;1.75;0.63;;;;;;;20.97;nan;101148.72;2089464;28;20547;-69
2022/08/06 04:55:20;;;;;;;1.17;0.93;;;;;;;21.08;nan;101142.81;2073515;28;20048;-69
2022/08/06 04:56:22;;;;;;;4.97;0.80;;;;;;;21.16;nan;101145.50;2073850;28;20102;-69
2022/08/06 04:57:26;;;;;;;3.92;0.50;;;;;;;21.25;nan;101153.63;2081377;28;20045;-69
2022/08/06 04:58:32;;;;;;;1.50;0.65;;;;;;;21.29;nan;101154.53;2081098;28;20068;-66
2022/08/06 04:59:34;;;;;;;0.60;0.50;;;;;;;21.27;nan;101149.38;2074659;28;20041;-66
2022/08/06 05:00:42;;;;;;;3.80;0.57;;;;;;;21.21;nan;101156.19;2091366;28;20044;-66
2022/08/06 05:01:44;;;;;;;2.95;0.70;;;;;;;21.22;nan;101159.75;2090164;28;20056;-66
2022/08/06 05:02:46;;;;;;;0.70;0.70;;;;;;;21.31;nan;101157.72;2081410;28;20044;-66
2022/08/06 05:03:48;;;;;;;2.00;0.82;;;;;;;21.30;nan;101161.59;2073479;28;20061;-66
2022/08/06 05:04:57;;;;;;;2.45;0.70;;;;;;;21.38;nan;101163.50;2090569;28;20060;-66
2022/08/06 05:06:07;;;;;;;1.33;0.50;;;;;;;21.38;nan;101165.44;2098704;28;20044;-66
2022/08/06 05:07:15;;;;;;;3.92;1.20;;;;;;;21.46;nan;101164.53;2098676;28;20040;-68
2022/08/06 05:08:21;;;;;;;5.90;1.10;;;;;;;21.55;nan;101167.19;2079203;28;20045;-69
2022/08/06 05:09:25;;;;;;;3.38;0.80;;;;;;;21.63;nan;101164.38;2074283;28;20045;-68
2022/08/06 05:10:53;;;;;;;3.35;0.70;;;;;;;21.71;nan;101173.59;2081685;28;20034;-69
2022/08/06 05:12:11;;;;;;;2.40;0.68;;;;;;;21.79;nan;101169.97;2088982;28;20045;-68
2022/08/06 05:13:15;;;;;;;1.08;0.57;;;;;;;21.85;nan;101174.09;2089793;28;20041;-69
2022/08/06 05:14:36;;;;;;;1.00;0.65;;;;;;;21.89;nan;101172.28;2081855;28;20599;-67
2022/08/06 05:15:47;;;;;;;1.67;0.60;;;;;;;21.91;nan;101185.59;2094163;28;20049;-68
2022/08/06 05:16:52;;;;;;;1.73;0.68;;;;;;;21.97;nan;101178.78;2089859;28;20041;-69
2022/08/06 05:17:59;;;;;;;1.27;0.50;;;;;;;22.03;nan;101182.09;2081249;28;20041;-67